sensor_id;sensor_type;location;lat;lon;timestamp;P1;P2;P0
68341;PMS7003;55668;52.310;21.066;2023-03-01T00:24:34;35;33;
68341;PMS7003;55668;52.310;21.066;2023-03-01T00:41:13;28;28;
68341;PMS7003;55668;52.310;21.066;2023-03-01T01:25:46;30;28;
68341;PMS7003;55668;52.310;21.066;2023-03-01T02:12:45;26;26;
68341;PMS7003;55668;52.310;21.066;2023-03-01T02:43:14;32;30;
68341;PMS7003;55668;52.310;21.066;2023-03-01T04:29:59;28;28;
68341;PMS7003;55668;52.310;21.066;2023-03-01T04:45:49;28;26;
68341;PMS7003;55668;52.310;21.066;2023-03-01T06:02:55;29;29;
68341;PMS7003;55668;52.310;21.066;2023-03-01T06:20:31;30;30;
68341;PMS7003;55668;52.310;21.066;2023-03-01T06:32:52;30;29;
68341;PMS7003;55668;52.310;21.066;2023-03-01T06:48:34;36;33;
68341;PMS7003;55668;52.310;21.066;2023-03-01T07:04:13;32;30;
68341;PMS7003;55668;52.310;21.066;2023-03-01T07:20:34;38;29;
68341;PMS7003;55668;52.310;21.066;2023-03-01T07:52:45;26;26;
68341;PMS7003;55668;52.310;21.066;2023-03-01T08:20:53;29;27;
68341;PMS7003;55668;52.310;21.066;2023-03-01T08:36:58;29;27;
68341;PMS7003;55668;52.310;21.066;2023-03-01T08:52:11;29;28;
68341;PMS7003;55668;52.310;21.066;2023-03-01T09:06:06;32;25;
68341;PMS7003;55668;52.310;21.066;2023-03-01T09:24:33;22;22;
68341;PMS7003;55668;52.310;21.066;2023-03-01T10:29:31;17;15;
68341;PMS7003;55668;52.310;21.066;2023-03-01T10:38:22;15;14;
68341;PMS7003;55668;52.310;21.066;2023-03-01T10:53:54;12;12;
68341;PMS7003;55668;52.310;21.066;2023-03-01T11:09:13;14;14;
68341;PMS7003;55668;52.310;21.066;2023-03-01T11:25:11;8;8;
68341;PMS7003;55668;52.310;21.066;2023-03-01T12:00:46;9;9;
68341;PMS7003;55668;52.310;21.066;2023-03-01T12:11:37;12;12;
68341;PMS7003;55668;52.310;21.066;2023-03-01T12:41:55;19;17;
68341;PMS7003;55668;52.310;21.066;2023-03-01T13:27:23;19;19;
68341;PMS7003;55668;52.310;21.066;2023-03-01T13:58:30;23;23;
68341;PMS7003;55668;52.310;21.066;2023-03-01T14:16:25;17;17;
68341;PMS7003;55668;52.310;21.066;2023-03-01T14:32:53;24;24;
68341;PMS7003;55668;52.310;21.066;2023-03-01T14:45:27;20;20;
68341;PMS7003;55668;52.310;21.066;2023-03-01T15:17:22;22;22;
68341;PMS7003;55668;52.310;21.066;2023-03-01T15:34:22;22;22;
68341;PMS7003;55668;52.310;21.066;2023-03-01T15:46:53;25;24;
68341;PMS7003;55668;52.310;21.066;2023-03-01T16:02:08;23;23;
68341;PMS7003;55668;52.310;21.066;2023-03-01T16:16:15;27;26;
68341;PMS7003;55668;52.310;21.066;2023-03-01T16:37:45;29;29;
68341;PMS7003;55668;52.310;21.066;2023-03-01T17:06:48;33;32;
68341;PMS7003;55668;52.310;21.066;2023-03-01T17:18:45;38;34;
68341;PMS7003;55668;52.310;21.066;2023-03-01T17:38:13;33;31;
68341;PMS7003;55668;52.310;21.066;2023-03-01T17:51:10;30;28;
68341;PMS7003;55668;52.310;21.066;2023-03-01T18:24:30;64;46;
68341;PMS7003;55668;52.310;21.066;2023-03-01T18:38:55;48;39;
68341;PMS7003;55668;52.310;21.066;2023-03-01T18:53:59;34;30;
68341;PMS7003;55668;52.310;21.066;2023-03-01T19:11:16;18;17;
68341;PMS7003;55668;52.310;21.066;2023-03-01T19:20:38;18;17;
68341;PMS7003;55668;52.310;21.066;2023-03-01T19:37:59;11;11;
68341;PMS7003;55668;52.310;21.066;2023-03-01T19:51:46;13;12;
68341;PMS7003;55668;52.310;21.066;2023-03-01T20:10:20;12;12;
68341;PMS7003;55668;52.310;21.066;2023-03-01T20:22:10;12;10;
68341;PMS7003;55668;52.310;21.066;2023-03-01T20:52:41;14;12;
68341;PMS7003;55668;52.310;21.066;2023-03-01T21:08:06;15;15;
68341;PMS7003;55668;52.310;21.066;2023-03-01T21:39:25;20;20;
68341;PMS7003;55668;52.310;21.066;2023-03-01T21:56:51;23;23;
68341;PMS7003;55668;52.310;21.066;2023-03-01T22:13:58;22;21;
68341;PMS7003;55668;52.310;21.066;2023-03-01T22:27:32;25;23;
68341;PMS7003;55668;52.310;21.066;2023-03-01T22:56:11;26;26;
68341;PMS7003;55668;52.310;21.066;2023-03-01T23:10:50;28;26;
68341;PMS7003;55668;52.310;21.066;2023-03-01T23:26:59;27;27;
68341;PMS7003;55668;52.310;21.066;2023-03-01T23:41:40;29;29;
68341;PMS7003;55668;52.310;21.066;2023-03-01T23:56:54;32;30;
